sensor_id;sensor_type;location;lat;lon;timestamp;pressure;altitude;pressure_sealevel;temperature;humidity
41264;BME280;26998;48.714;9.414;2023-02-21T00:00:24;99918.47;;;1.58;100.00
41264;BME280;26998;48.714;9.414;2023-02-21T00:02:51;99918.00;;;1.53;100.00
41264;BME280;26998;48.714;9.414;2023-02-21T00:05:17;99922.16;;;1.45;100.00
41264;BME280;26998;48.714;9.414;2023-02-21T00:07:44;99944.81;;;1.47;100.00
41264;BME280;26998;48.714;9.414;2023-02-21T00:10:13;99950.16;;;1.46;100.00
41264;BME280;26998;48.714;9.414;2023-02-21T00:12:40;99954.00;;;1.42;100.00
41264;BME280;26998;48.714;9.414;2023-02-21T00:15:07;99966.34;;;1.41;100.00
41264;BME280;26998;48.714;9.414;2023-02-21T00:17:34;99974.84;;;1.45;100.00
41264;BME280;26998;48.714;9.414;2023-02-21T00:20:01;99974.00;;;1.44;100.00
41264;BME280;26998;48.714;9.414;2023-02-21T00:22:27;99971.38;;;1.44;100.00
41264;BME280;26998;48.714;9.414;2023-02-21T00:24:54;99959.25;;;1.42;100.00
41264;BME280;26998;48.714;9.414;2023-02-21T00:27:21;99953.47;;;1.36;100.00
41264;BME280;26998;48.714;9.414;2023-02-21T00:29:50;99957.31;;;1.32;100.00
41264;BME280;26998;48.714;9.414;2023-02-21T00:32:16;99964.38;;;1.32;100.00
41264;BME280;26998;48.714;9.414;2023-02-21T00:34:43;99958.72;;;1.25;100.00
41264;BME280;26998;48.714;9.414;2023-02-21T00:37:09;99969.25;;;1.25;100.00
41264;BME280;26998;48.714;9.414;2023-02-21T00:39:36;99968.63;;;1.22;100.00
41264;BME280;26998;48.714;9.414;2023-02-21T00:42:03;99958.13;;;1.09;100.00
41264;BME280;26998;48.714;9.414;2023-02-21T00:44:29;99980.97;;;1.08;100.00
41264;BME280;26998;48.714;9.414;2023-02-21T00:46:56;99984.78;;;1.04;100.00
41264;BME280;26998;48.714;9.414;2023-02-21T00:49:22;99997.00;;;1.05;100.00
41264;BME280;26998;48.714;9.414;2023-02-21T00:51:49;99988.25;;;1.05;100.00
41264;BME280;26998;48.714;9.414;2023-02-21T00:54:16;99998.78;;;1.05;100.00
41264;BME280;26998;48.714;9.414;2023-02-21T00:56:43;99991.94;;;1.02;100.00
41264;BME280;26998;48.714;9.414;2023-02-21T00:59:10;99987.22;;;0.95;100.00
41264;BME280;26998;48.714;9.414;2023-02-21T01:01:36;100004.63;;;0.97;100.00
41264;BME280;26998;48.714;9.414;2023-02-21T01:04:03;99994.69;;;1.01;100.00
41264;BME280;26998;48.714;9.414;2023-02-21T01:06:32;99990.50;;;0.98;100.00
41264;BME280;26998;48.714;9.414;2023-02-21T01:08:59;99996.59;;;0.99;100.00
41264;BME280;26998;48.714;9.414;2023-02-21T01:11:25;99991.75;;;0.92;100.00
41264;BME280;26998;48.714;9.414;2023-02-21T01:13:52;100001.34;;;0.94;100.00
41264;BME280;26998;48.714;9.414;2023-02-21T01:16:19;100004.63;;;0.97;100.00
41264;BME280;26998;48.714;9.414;2023-02-21T01:18:45;99997.53;;;0.98;100.00
41264;BME280;26998;48.714;9.414;2023-02-21T01:21:16;99996.81;;;0.96;100.00
41264;BME280;26998;48.714;9.414;2023-02-21T01:23:43;99987.22;;;0.95;100.00
41264;BME280;26998;48.714;9.414;2023-02-21T01:26:10;99985.03;;;0.88;100.00
41264;BME280;26998;48.714;9.414;2023-02-21T01:28:36;99994.50;;;0.91;100.00
41264;BME280;26998;48.714;9.414;2023-02-21T01:31:03;99993.03;;;0.87;100.00
41264;BME280;26998;48.714;9.414;2023-02-21T01:33:36;100007.06;;;0.87;100.00
41264;BME280;26998;48.714;9.414;2023-02-21T01:36:04;100010.13;;;0.81;100.00
41264;BME280;26998;48.714;9.414;2023-02-21T01:38:34;100010.00;;;0.83;100.00
41264;BME280;26998;48.714;9.414;2023-02-21T01:41:01;100004.84;;;0.81;100.00
41264;BME280;26998;48.714;9.414;2023-02-21T01:43:28;100004.53;;;0.73;100.00
41264;BME280;26998;48.714;9.414;2023-02-21T01:45:55;100005.50;;;0.72;100.00
41264;BME280;26998;48.714;9.414;2023-02-21T01:48:22;100004.84;;;0.68;100.00
41264;BME280;26998;48.714;9.414;2023-02-21T01:50:52;100007.59;;;0.67;100.00
41264;BME280;26998;48.714;9.414;2023-02-21T01:53:22;100010.22;;;0.67;100.00
41264;BME280;26998;48.714;9.414;2023-02-21T01:55:50;100003.38;;;0.64;100.00
41264;BME280;26998;48.714;9.414;2023-02-21T01:58:20;100017.78;;;0.72;100.00
41264;BME280;26998;48.714;9.414;2023-02-21T02:00:49;100014.53;;;0.68;100.00
41264;BME280;26998;48.714;9.414;2023-02-21T02:03:18;99997.28;;;0.64;100.00
41264;BME280;26998;48.714;9.414;2023-02-21T02:05:49;99996.03;;;0.57;100.00
41264;BME280;26998;48.714;9.414;2023-02-21T02:08:19;99990.44;;;0.49;100.00
41264;BME280;26998;48.714;9.414;2023-02-21T02:10:51;99992.03;;;0.51;100.00
41264;BME280;26998;48.714;9.414;2023-02-21T02:16:25;100016.88;;;0.60;100.00
41264;BME280;26998;48.714;9.414;2023-02-21T02:25:20;99992.47;;;0.45;100.00
41264;BME280;26998;48.714;9.414;2023-02-21T02:28:22;100004.03;;;0.42;100.00
41264;BME280;26998;48.714;9.414;2023-02-21T02:31:15;100008.31;;;0.43;100.00
41264;BME280;26998;48.714;9.414;2023-02-21T02:34:08;100006.78;;;0.41;100.00
41264;BME280;26998;48.714;9.414;2023-02-21T02:36:48;100017.59;;;0.49;100.00
41264;BME280;26998;48.714;9.414;2023-02-21T02:39:33;100002.97;;;0.45;100.00
41264;BME280;26998;48.714;9.414;2023-02-21T02:45:05;99980.28;;;0.31;100.00
41264;BME280;26998;48.714;9.414;2023-02-21T02:47:36;99987.41;;;0.29;100.00
41264;BME280;26998;48.714;9.414;2023-02-21T02:50:06;99978.78;;;0.27;100.00
41264;BME280;26998;48.714;9.414;2023-02-21T02:52:34;99983.31;;;0.25;100.00
41264;BME280;26998;48.714;9.414;2023-02-21T02:55:19;99989.41;;;0.26;100.00
41264;BME280;26998;48.714;9.414;2023-02-21T02:57:47;99990.13;;;0.28;100.00
41264;BME280;26998;48.714;9.414;2023-02-21T03:00:14;99979.19;;;0.21;100.00
41264;BME280;26998;48.714;9.414;2023-02-21T03:03:02;99985.69;;;0.15;100.00
41264;BME280;26998;48.714;9.414;2023-02-21T03:05:50;99997.09;;;0.16;100.00
41264;BME280;26998;48.714;9.414;2023-02-21T03:08:40;99997.16;;;0.14;100.00
41264;BME280;26998;48.714;9.414;2023-02-21T03:11:17;99992.25;;;0.10;100.00
41264;BME280;26998;48.714;9.414;2023-02-21T03:16:30;99995.47;;;0.01;100.00
41264;BME280;26998;48.714;9.414;2023-02-21T03:19:03;100008.81;;;-0.03;100.00
41264;BME280;26998;48.714;9.414;2023-02-21T03:21:39;100019.13;;;0.01;100.00
41264;BME280;26998;48.714;9.414;2023-02-21T03:24:09;100021.75;;;0.01;100.00
41264;BME280;26998;48.714;9.414;2023-02-21T03:26:39;100017.97;;;-0.08;100.00
41264;BME280;26998;48.714;9.414;2023-02-21T03:29:08;100021.00;;;-0.14;100.00
41264;BME280;26998;48.714;9.414;2023-02-21T03:31:57;100028.31;;;-0.19;100.00
41264;BME280;26998;48.714;9.414;2023-02-21T03:34:27;100031.25;;;-0.24;100.00
41264;BME280;26998;48.714;9.414;2023-02-21T03:36:53;99978.41;;;-0.19;100.00
41264;BME280;26998;48.714;9.414;2023-02-21T03:39:21;99708.22;;;-0.26;100.00
41264;BME280;26998;48.714;9.414;2023-02-21T03:41:47;99697.84;;;-0.27;100.00
41264;BME280;26998;48.714;9.414;2023-02-21T03:44:14;99685.63;;;-0.28;100.00
41264;BME280;26998;48.714;9.414;2023-02-21T03:46:40;99682.91;;;-0.27;100.00
41264;BME280;26998;48.714;9.414;2023-02-21T03:49:06;99680.16;;;-0.25;100.00
41264;BME280;26998;48.714;9.414;2023-02-21T03:51:33;99673.13;;;-0.25;100.00
41264;BME280;26998;48.714;9.414;2023-02-21T03:53:59;99670.50;;;-0.25;100.00
41264;BME280;26998;48.714;9.414;2023-02-21T03:56:26;99661.06;;;-0.27;100.00
41264;BME280;26998;48.714;9.414;2023-02-21T03:59:05;99668.72;;;-0.24;100.00
41264;BME280;26998;48.714;9.414;2023-02-21T04:01:32;99661.16;;;-0.29;100.00
41264;BME280;26998;48.714;9.414;2023-02-21T04:03:58;99657.69;;;-0.29;100.00
41264;BME280;26998;48.714;9.414;2023-02-21T04:06:25;99662.19;;;-0.31;100.00
41264;BME280;26998;48.714;9.414;2023-02-21T04:08:51;99664.75;;;-0.30;100.00
41264;BME280;26998;48.714;9.414;2023-02-21T04:11:20;99664.31;;;-0.24;100.00
41264;BME280;26998;48.714;9.414;2023-02-21T04:13:46;99658.97;;;-0.35;100.00
41264;BME280;26998;48.714;9.414;2023-02-21T04:16:14;99662.88;;;-0.40;100.00
41264;BME280;26998;48.714;9.414;2023-02-21T04:18:40;99660.25;;;-0.40;100.00
41264;BME280;26998;48.714;9.414;2023-02-21T04:21:07;99655.84;;;-0.40;100.00
41264;BME280;26998;48.714;9.414;2023-02-21T04:23:34;99660.47;;;-0.43;100.00
41264;BME280;26998;48.714;9.414;2023-02-21T04:26:00;99656.50;;;-0.49;100.00
41264;BME280;26998;48.714;9.414;2023-02-21T04:28:27;99662.56;;;-0.49;100.00
41264;BME280;26998;48.714;9.414;2023-02-21T04:30:53;99645.88;;;-0.48;100.00
41264;BME280;26998;48.714;9.414;2023-02-21T04:33:20;99644.06;;;-0.47;100.00
41264;BME280;26998;48.714;9.414;2023-02-21T04:35:46;99647.13;;;-0.40;100.00
41264;BME280;26998;48.714;9.414;2023-02-21T04:38:14;99642.94;;;-0.43;100.00
41264;BME280;26998;48.714;9.414;2023-02-21T04:40:40;99643.16;;;-0.46;100.00
41264;BME280;26998;48.714;9.414;2023-02-21T04:43:07;99647.56;;;-0.47;100.00
41264;BME280;26998;48.714;9.414;2023-02-21T04:45:34;99651.25;;;-0.49;100.00
41264;BME280;26998;48.714;9.414;2023-02-21T04:48:00;99650.41;;;-0.50;100.00
41264;BME280;26998;48.714;9.414;2023-02-21T04:50:27;99659.81;;;-0.47;100.00
41264;BME280;26998;48.714;9.414;2023-02-21T04:52:53;99653.03;;;-0.50;100.00
41264;BME280;26998;48.714;9.414;2023-02-21T04:55:20;99653.88;;;-0.49;100.00
41264;BME280;26998;48.714;9.414;2023-02-21T04:57:48;99658.91;;;-0.46;100.00
41264;BME280;26998;48.714;9.414;2023-02-21T05:00:15;99655.44;;;-0.47;100.00
41264;BME280;26998;48.714;9.414;2023-02-21T05:02:42;99652.69;;;-0.45;100.00
41264;BME280;26998;48.714;9.414;2023-02-21T05:05:09;99655.31;;;-0.45;100.00
41264;BME280;26998;48.714;9.414;2023-02-21T05:07:36;99647.34;;;-0.43;100.00
41264;BME280;26998;48.714;9.414;2023-02-21T05:10:03;99649.84;;;-0.42;100.00
41264;BME280;26998;48.714;9.414;2023-02-21T05:12:31;99644.94;;;-0.47;100.00
41264;BME280;26998;48.714;9.414;2023-02-21T05:14:57;99642.75;;;-0.53;100.00
41264;BME280;26998;48.714;9.414;2023-02-21T05:17:24;99648.00;;;-0.53;100.00
41264;BME280;26998;48.714;9.414;2023-02-21T05:19:50;99651.47;;;-0.52;100.00
41264;BME280;26998;48.714;9.414;2023-02-21T05:22:17;99641.16;;;-0.55;100.00
41264;BME280;26998;48.714;9.414;2023-02-21T05:24:45;99637.06;;;-0.59;100.00
41264;BME280;26998;48.714;9.414;2023-02-21T05:27:12;99642.22;;;-0.58;100.00
41264;BME280;26998;48.714;9.414;2023-02-21T05:29:39;99646.50;;;-0.57;100.00
41264;BME280;26998;48.714;9.414;2023-02-21T05:32:05;99645.06;;;-0.61;100.00
41264;BME280;26998;48.714;9.414;2023-02-21T05:34:32;99639.47;;;-0.56;100.00
41264;BME280;26998;48.714;9.414;2023-02-21T05:36:58;99636.00;;;-0.57;100.00
41264;BME280;26998;48.714;9.414;2023-02-21T05:39:25;99642.44;;;-0.61;100.00
41264;BME280;26998;48.714;9.414;2023-02-21T05:41:52;99649.34;;;-0.60;100.00
41264;BME280;26998;48.714;9.414;2023-02-21T05:44:18;99650.66;;;-0.65;100.00
41264;BME280;26998;48.714;9.414;2023-02-21T05:46:45;99650.13;;;-0.71;100.00
41264;BME280;26998;48.714;9.414;2023-02-21T05:49:11;99643.81;;;-0.68;100.00
41264;BME280;26998;48.714;9.414;2023-02-21T05:51:41;99643.06;;;-0.70;100.00
41264;BME280;26998;48.714;9.414;2023-02-21T05:54:13;99646.44;;;-0.68;100.00
41264;BME280;26998;48.714;9.414;2023-02-21T05:56:41;99637.72;;;-0.68;100.00
41264;BME280;26998;48.714;9.414;2023-02-21T05:59:09;99645.59;;;-0.68;100.00
41264;BME280;26998;48.714;9.414;2023-02-21T06:01:36;99638.66;;;-0.70;100.00
41264;BME280;26998;48.714;9.414;2023-02-21T06:04:03;99639.19;;;-0.64;100.00
41264;BME280;26998;48.714;9.414;2023-02-21T06:06:30;99639.28;;;-0.66;100.00
41264;BME280;26998;48.714;9.414;2023-02-21T06:08:56;99641.91;;;-0.66;100.00
41264;BME280;26998;48.714;9.414;2023-02-21T06:11:29;99638.56;;;-0.68;100.00
41264;BME280;26998;48.714;9.414;2023-02-21T06:13:57;99633.09;;;-0.65;100.00
41264;BME280;26998;48.714;9.414;2023-02-21T06:16:25;99641.47;;;-0.60;100.00
41264;BME280;26998;48.714;9.414;2023-02-21T06:18:53;99633.72;;;-0.61;100.00
41264;BME280;26998;48.714;9.414;2023-02-21T06:21:20;99629.91;;;-0.57;100.00
41264;BME280;26998;48.714;9.414;2023-02-21T06:23:46;99629.53;;;-0.64;100.00
41264;BME280;26998;48.714;9.414;2023-02-21T06:26:14;99634.16;;;-0.67;100.00
41264;BME280;26998;48.714;9.414;2023-02-21T06:28:41;99638.78;;;-0.71;100.00
41264;BME280;26998;48.714;9.414;2023-02-21T06:31:07;99638.56;;;-0.68;100.00
41264;BME280;26998;48.714;9.414;2023-02-21T06:33:34;99633.53;;;-0.71;100.00
41264;BME280;26998;48.714;9.414;2023-02-21T06:36:09;99639.50;;;-0.69;100.00
41264;BME280;26998;48.714;9.414;2023-02-21T06:38:36;99642.75;;;-0.65;100.00
41264;BME280;26998;48.714;9.414;2023-02-21T06:41:07;99644.31;;;-0.63;100.00
41264;BME280;26998;48.714;9.414;2023-02-21T06:43:34;99638.22;;;-0.63;100.00
41264;BME280;26998;48.714;9.414;2023-02-21T06:46:01;99638.84;;;-0.60;100.00
41264;BME280;26998;48.714;9.414;2023-02-21T06:48:28;99644.00;;;-0.58;100.00
41264;BME280;26998;48.714;9.414;2023-02-21T06:50:55;99648.00;;;-0.53;100.00
41264;BME280;26998;48.714;9.414;2023-02-21T06:53:22;99653.03;;;-0.50;100.00
41264;BME280;26998;48.714;9.414;2023-02-21T06:55:48;99657.84;;;-0.43;100.00
41264;BME280;26998;48.714;9.414;2023-02-21T06:58:15;99671.59;;;-0.40;100.00
41264;BME280;26998;48.714;9.414;2023-02-21T07:00:43;99666.75;;;-0.33;100.00
41264;BME280;26998;48.714;9.414;2023-02-21T07:03:09;99676.91;;;-0.29;100.00
41264;BME280;26998;48.714;9.414;2023-02-21T07:05:36;99685.94;;;-0.20;100.00
41264;BME280;26998;48.714;9.414;2023-02-21T07:08:03;99679.28;;;-0.13;100.00
41264;BME280;26998;48.714;9.414;2023-02-21T07:10:29;99688.56;;;-0.20;100.00
41264;BME280;26998;48.714;9.414;2023-02-21T07:12:56;99683.84;;;-0.15;100.00
41264;BME280;26998;48.714;9.414;2023-02-21T07:15:22;99688.25;;;0.09;100.00
41264;BME280;26998;48.714;9.414;2023-02-21T07:17:49;99685.91;;;0.17;100.00
41264;BME280;26998;48.714;9.414;2023-02-21T07:20:16;99696.16;;;0.33;100.00
41264;BME280;26998;48.714;9.414;2023-02-21T07:22:42;99693.63;;;0.55;100.00
41264;BME280;26998;48.714;9.414;2023-02-21T07:25:15;99690.38;;;0.52;100.00
41264;BME280;26998;48.714;9.414;2023-02-21T07:27:42;99691.69;;;0.81;100.00
41264;BME280;26998;48.714;9.414;2023-02-21T07:30:09;99685.84;;;0.89;100.00
41264;BME280;26998;48.714;9.414;2023-02-21T07:32:36;99682.38;;;0.88;100.00
41264;BME280;26998;48.714;9.414;2023-02-21T07:35:03;99681.31;;;1.02;100.00
41264;BME280;26998;48.714;9.414;2023-02-21T07:37:30;99673.78;;;1.09;100.00
41264;BME280;26998;48.714;9.414;2023-02-21T07:39:57;99675.25;;;1.35;100.00
41264;BME280;26998;48.714;9.414;2023-02-21T07:42:24;99670.47;;;1.52;100.00
41264;BME280;26998;48.714;9.414;2023-02-21T07:44:57;99660.38;;;1.79;100.00
41264;BME280;26998;48.714;9.414;2023-02-21T07:47:24;99635.19;;;1.87;100.00
41264;BME280;26998;48.714;9.414;2023-02-21T07:49:51;99626.44;;;1.97;100.00
41264;BME280;26998;48.714;9.414;2023-02-21T07:52:19;99614.97;;;2.19;100.00
41264;BME280;26998;48.714;9.414;2023-02-21T07:54:45;99607.16;;;2.50;100.00
41264;BME280;26998;48.714;9.414;2023-02-21T07:57:14;99568.34;;;2.62;100.00
41264;BME280;26998;48.714;9.414;2023-02-21T07:59:41;99558.59;;;2.83;100.00
41264;BME280;26998;48.714;9.414;2023-02-21T08:02:09;99540.19;;;2.93;100.00
41264;BME280;26998;48.714;9.414;2023-02-21T08:04:36;99531.25;;;3.24;100.00
41264;BME280;26998;48.714;9.414;2023-02-21T08:07:03;99496.22;;;3.32;100.00
41264;BME280;26998;48.714;9.414;2023-02-21T08:09:30;99486.81;;;3.49;100.00
41264;BME280;26998;48.714;9.414;2023-02-21T08:11:57;99467.72;;;3.36;100.00
41264;BME280;26998;48.714;9.414;2023-02-21T08:14:24;99472.16;;;3.35;100.00
41264;BME280;26998;48.714;9.414;2023-02-21T08:16:51;99471.50;;;3.53;100.00
41264;BME280;26998;48.714;9.414;2023-02-21T08:19:18;99465.38;;;3.72;100.00
41264;BME280;26998;48.714;9.414;2023-02-21T08:21:47;99445.88;;;3.92;100.00
41264;BME280;26998;48.714;9.414;2023-02-21T08:24:15;99429.31;;;4.09;100.00
41264;BME280;26998;48.714;9.414;2023-02-21T08:26:43;99422.28;;;4.28;100.00
41264;BME280;26998;48.714;9.414;2023-02-21T08:29:11;99394.34;;;4.53;100.00
41264;BME280;26998;48.714;9.414;2023-02-21T08:31:39;99373.94;;;4.63;100.00
41264;BME280;26998;48.714;9.414;2023-02-21T08:34:06;99358.19;;;4.89;100.00
41264;BME280;26998;48.714;9.414;2023-02-21T08:36:36;99356.63;;;4.96;100.00
41264;BME280;26998;48.714;9.414;2023-02-21T08:39:04;99329.75;;;5.09;100.00
41264;BME280;26998;48.714;9.414;2023-02-21T08:41:50;99310.22;;;5.28;100.00
41264;BME280;26998;48.714;9.414;2023-02-21T08:44:19;99287.00;;;5.74;100.00
41264;BME280;26998;48.714;9.414;2023-02-21T08:46:45;99276.66;;;6.15;100.00
41264;BME280;26998;48.714;9.414;2023-02-21T08:49:14;99261.81;;;6.04;100.00
41264;BME280;26998;48.714;9.414;2023-02-21T08:51:41;99248.47;;;6.22;100.00
41264;BME280;26998;48.714;9.414;2023-02-21T08:54:08;99253.56;;;6.58;100.00
41264;BME280;26998;48.714;9.414;2023-02-21T08:56:34;99238.59;;;6.57;100.00
41264;BME280;26998;48.714;9.414;2023-02-21T08:59:01;99235.81;;;6.66;100.00
41264;BME280;26998;48.714;9.414;2023-02-21T09:01:32;99230.66;;;6.65;100.00
41264;BME280;26998;48.714;9.414;2023-02-21T09:04:00;99232.84;;;6.94;100.00
41264;BME280;26998;48.714;9.414;2023-02-21T09:06:27;99228.53;;;6.85;100.00
41264;BME280;26998;48.714;9.414;2023-02-21T09:08:54;99226.03;;;7.24;100.00
41264;BME280;26998;48.714;9.414;2023-02-21T09:11:21;99223.69;;;7.37;100.00
41264;BME280;26998;48.714;9.414;2023-02-21T09:13:47;99223.38;;;7.24;100.00
41264;BME280;26998;48.714;9.414;2023-02-21T09:16:14;99223.19;;;7.42;100.00
41264;BME280;26998;48.714;9.414;2023-02-21T09:18:41;99221.50;;;7.57;100.00
41264;BME280;26998;48.714;9.414;2023-02-21T09:21:07;99219.69;;;7.58;100.00
41264;BME280;26998;48.714;9.414;2023-02-21T09:23:34;99217.91;;;7.98;100.00
41264;BME280;26998;48.714;9.414;2023-02-21T09:26:00;99211.09;;;7.87;100.00
41264;BME280;26998;48.714;9.414;2023-02-21T09:28:27;99208.47;;;8.18;100.00
41264;BME280;26998;48.714;9.414;2023-02-21T09:30:55;99204.78;;;8.59;100.00
41264;BME280;26998;48.714;9.414;2023-02-21T09:33:21;99208.56;;;9.10;100.00
41264;BME280;26998;48.714;9.414;2023-02-21T09:35:50;99202.88;;;9.13;100.00
41264;BME280;26998;48.714;9.414;2023-02-21T09:38:17;99199.56;;;9.11;99.12
41264;BME280;26998;48.714;9.414;2023-02-21T09:40:50;99199.94;;;8.85;100.00
41264;BME280;26998;48.714;9.414;2023-02-21T09:43:32;99192.88;;;9.30;99.11
41264;BME280;26998;48.714;9.414;2023-02-21T09:46:04;99198.97;;;9.39;96.66
41264;BME280;26998;48.714;9.414;2023-02-21T09:48:32;99188.47;;;9.22;97.60
41264;BME280;26998;48.714;9.414;2023-02-21T09:51:03;99198.66;;;9.34;96.92
41264;BME280;26998;48.714;9.414;2023-02-21T09:53:34;99186.91;;;9.43;97.82
41264;BME280;26998;48.714;9.414;2023-02-21T09:56:04;99185.59;;;9.24;98.05
41264;BME280;26998;48.714;9.414;2023-02-21T09:58:31;99189.59;;;9.43;94.97
41264;BME280;26998;48.714;9.414;2023-02-21T10:01:03;99184.44;;;9.41;95.89
41264;BME280;26998;48.714;9.414;2023-02-21T10:03:49;99176.88;;;9.89;94.61
41264;BME280;26998;48.714;9.414;2023-02-21T10:06:35;99178.34;;;10.07;92.86
41264;BME280;26998;48.714;9.414;2023-02-21T10:09:20;99175.47;;;10.23;92.28
41264;BME280;26998;48.714;9.414;2023-02-21T10:20:38;99175.16;;;10.91;88.95
41264;BME280;26998;48.714;9.414;2023-02-21T10:23:14;99175.03;;;11.27;85.93
41264;BME280;26998;48.714;9.414;2023-02-21T10:25:48;99166.44;;;11.66;85.21
41264;BME280;26998;48.714;9.414;2023-02-21T10:28:25;99168.44;;;11.92;83.88
41264;BME280;26998;48.714;9.414;2023-02-21T10:30:57;99166.22;;;11.68;83.47
41264;BME280;26998;48.714;9.414;2023-02-21T10:33:29;99171.69;;;11.81;83.86
41264;BME280;26998;48.714;9.414;2023-02-21T10:35:57;99164.16;;;12.05;82.48
41264;BME280;26998;48.714;9.414;2023-02-21T10:38:24;99168.56;;;12.19;79.96
41264;BME280;26998;48.714;9.414;2023-02-21T10:40:58;99166.59;;;12.47;80.69
41264;BME280;26998;48.714;9.414;2023-02-21T10:43:33;99171.38;;;12.99;75.46
41264;BME280;26998;48.714;9.414;2023-02-21T10:46:54;99161.06;;;12.89;73.70
41264;BME280;26998;48.714;9.414;2023-02-21T10:48:58;99153.44;;;12.79;74.93
41264;BME280;26998;48.714;9.414;2023-02-21T10:51:33;99156.94;;;12.80;72.87
41264;BME280;26998;48.714;9.414;2023-02-21T10:54:23;99154.28;;;13.26;72.90
41264;BME280;26998;48.714;9.414;2023-02-21T10:56:52;99151.19;;;13.49;68.20
41264;BME280;26998;48.714;9.414;2023-02-21T10:59:27;99152.00;;;13.16;68.54
41264;BME280;26998;48.714;9.414;2023-02-21T11:01:56;99154.25;;;13.59;69.12
41264;BME280;26998;48.714;9.414;2023-02-21T11:04:26;99147.63;;;13.49;66.75
41264;BME280;26998;48.714;9.414;2023-02-21T11:07:06;99144.75;;;13.50;64.74
41264;BME280;26998;48.714;9.414;2023-02-21T11:09:45;99138.16;;;13.46;65.45
41264;BME280;26998;48.714;9.414;2023-02-21T11:14:44;99126.91;;;13.76;65.79
41264;BME280;26998;48.714;9.414;2023-02-21T11:17:31;99127.47;;;13.91;66.72
41264;BME280;26998;48.714;9.414;2023-02-21T11:25:24;99107.19;;;13.95;66.96
41264;BME280;26998;48.714;9.414;2023-02-21T11:28:04;99098.78;;;14.30;67.91
41264;BME280;26998;48.714;9.414;2023-02-21T11:30:35;99093.41;;;14.23;65.07
41264;BME280;26998;48.714;9.414;2023-02-21T11:33:03;99092.63;;;14.79;64.46
41264;BME280;26998;48.714;9.414;2023-02-21T11:35:34;99088.59;;;14.95;61.21
41264;BME280;26998;48.714;9.414;2023-02-21T11:38:06;99090.38;;;15.27;56.34
41264;BME280;26998;48.714;9.414;2023-02-21T11:40:40;99077.69;;;15.70;56.56
41264;BME280;26998;48.714;9.414;2023-02-21T11:43:20;99082.88;;;15.29;55.62
41264;BME280;26998;48.714;9.414;2023-02-21T11:48:41;99082.16;;;15.40;50.82
41264;BME280;26998;48.714;9.414;2023-02-21T11:51:34;99073.91;;;15.53;49.67
41264;BME280;26998;48.714;9.414;2023-02-21T11:54:04;99067.97;;;16.30;49.09
41264;BME280;26998;48.714;9.414;2023-02-21T11:56:50;99060.91;;;15.87;48.01
41264;BME280;26998;48.714;9.414;2023-02-21T11:59:24;99058.88;;;15.64;48.35
41264;BME280;26998;48.714;9.414;2023-02-21T12:10:32;99039.34;;;16.17;44.51
41264;BME280;26998;48.714;9.414;2023-02-21T12:15:55;99021.94;;;16.55;42.92
41264;BME280;26998;48.714;9.414;2023-02-21T12:21:18;99007.22;;;17.04;40.25
41264;BME280;26998;48.714;9.414;2023-02-21T12:30:00;98995.06;;;16.60;41.84
41264;BME280;26998;48.714;9.414;2023-02-21T12:32:49;98993.44;;;16.59;40.86
41264;BME280;26998;48.714;9.414;2023-02-21T12:38:21;98979.25;;;16.52;41.04
41264;BME280;26998;48.714;9.414;2023-02-21T12:55:11;98950.84;;;16.73;39.81
41264;BME280;26998;48.714;9.414;2023-02-21T12:57:58;98944.75;;;16.54;40.08
41264;BME280;26998;48.714;9.414;2023-02-21T13:00:38;98938.75;;;17.11;40.70
41264;BME280;26998;48.714;9.414;2023-02-21T13:09:34;98914.34;;;17.34;39.24
41264;BME280;26998;48.714;9.414;2023-02-21T13:14:34;98906.41;;;17.27;39.72
41264;BME280;26998;48.714;9.414;2023-02-21T13:17:02;98900.75;;;17.58;38.81
41264;BME280;26998;48.714;9.414;2023-02-21T13:19:38;98903.97;;;18.17;37.52
41264;BME280;26998;48.714;9.414;2023-02-21T13:25:13;98889.63;;;17.54;38.35
41264;BME280;26998;48.714;9.414;2023-02-21T13:28:21;98876.66;;;16.99;39.88
41264;BME280;26998;48.714;9.414;2023-02-21T13:30:44;98872.97;;;17.17;39.82
41264;BME280;26998;48.714;9.414;2023-02-21T13:33:41;98867.31;;;17.18;39.87
41264;BME280;26998;48.714;9.414;2023-02-21T13:36:28;98863.75;;;17.75;38.70
41264;BME280;26998;48.714;9.414;2023-02-21T13:41:47;98861.16;;;16.94;40.50
41264;BME280;26998;48.714;9.414;2023-02-21T13:47:06;98845.63;;;17.42;40.79
41264;BME280;26998;48.714;9.414;2023-02-21T13:49:55;98842.94;;;17.42;40.05
41264;BME280;26998;48.714;9.414;2023-02-21T13:52:33;98840.97;;;16.97;39.76
41264;BME280;26998;48.714;9.414;2023-02-21T14:03:01;98814.94;;;17.65;39.81
41264;BME280;26998;48.714;9.414;2023-02-21T14:11:10;98811.75;;;17.51;39.43
41264;BME280;26998;48.714;9.414;2023-02-21T14:13:47;98808.94;;;17.46;38.60
41264;BME280;26998;48.714;9.414;2023-02-21T14:16:33;98800.94;;;17.68;39.30
41264;BME280;26998;48.714;9.414;2023-02-21T14:19:16;98798.97;;;17.63;38.70
41264;BME280;26998;48.714;9.414;2023-02-21T14:21:47;98798.31;;;17.73;38.25
41264;BME280;26998;48.714;9.414;2023-02-21T14:24:27;98796.78;;;17.15;38.37
41264;BME280;26998;48.714;9.414;2023-02-21T14:29:40;98796.59;;;17.67;39.95
41264;BME280;26998;48.714;9.414;2023-02-21T14:37:37;98781.13;;;17.62;39.05
41264;BME280;26998;48.714;9.414;2023-02-21T14:56:23;98759.13;;;17.08;42.38
41264;BME280;26998;48.714;9.414;2023-02-21T15:04:45;98742.63;;;16.64;44.47
41264;BME280;26998;48.714;9.414;2023-02-21T15:07:43;98738.25;;;16.34;44.84
41264;BME280;26998;48.714;9.414;2023-02-21T15:10:23;98739.66;;;16.25;44.64
41264;BME280;26998;48.714;9.414;2023-02-21T15:12:59;98739.16;;;16.40;44.71
41264;BME280;26998;48.714;9.414;2023-02-21T15:15:35;98731.97;;;16.05;46.09
41264;BME280;26998;48.714;9.414;2023-02-21T15:20:37;98732.66;;;16.01;48.19
41264;BME280;26998;48.714;9.414;2023-02-21T15:23:20;98734.78;;;15.99;48.49
41264;BME280;26998;48.714;9.414;2023-02-21T15:25:56;98727.66;;;15.81;49.51
41264;BME280;26998;48.714;9.414;2023-02-21T15:28:26;98726.59;;;15.82;50.57
41264;BME280;26998;48.714;9.414;2023-02-21T15:33:21;98721.44;;;15.68;52.33